Aérodrome :
LOGIN :

S'inscrire | Disclaimer

   EN    FR    IT 

 










Légende :    VFR   VFR Marginal   IFR   IFR Intensif   IFR Très Intensif
Visi : 
Plafond : 
>= 8 km
>= 3000ft
5 à 8 km
1000 à 3000 ft
1500m à 5 km
500 à 1000 ft
800 à 1500m
200 à 500 ft
< 800m
< 200 ft
Symboles :   Orages  Brouillard  Fortes neiges  Fortes précipitations  Vent > 20 kt
SIGMETs :   Divers  Orages  Givrage  Turbulence  Onde Orograph.  Cendres Volcan.






- Altitude de l'aérodrome : 184 ft
- Code IATA : BRU


EBBR - Bruxelles

DERNIER METAR :
  • 070250Z 24005KT 9999 SCT032 03/03 Q1019 NOSIG

METARs EXPIRÉS :
  • 070220Z 24005KT 9999 SCT032 04/03 Q1019 NOSIG
  • 070150Z 25005KT 9999 FEW025 03/03 Q1019 NOSIG
  • 070120Z 25005KT CAVOK 03/02 Q1019 NOSIG
  • 070050Z 25006KT 9999 SCT045 04/03 Q1019 NOSIG
  • 070020Z 25005KT 9999 FEW022 SCT045 04/03 Q1019 NOSIG

TAF TAF EBBR
Valide du 07 à 00h jusqu'au 08 à 06h UTC


062317Z 0700/0806 27005KT 9999 FEW015 SCT025
PROB30
TEMPO 0700/0710 BKN012
PROB30
TEMPO 0723/0806 SCT008 BKN012



MET'MAP, la Météo Aéronautique d'un coup d'oeil ! - Copyright ORBIFLY Décembre 2007 - Disclaimer

ORBIFLY MET'MAP TEAM :

Programmation & Développement : Alexandra Zaïnal
Sur une idée originale de : Baudouin d'Aumeries
Soutien technique & logistique : Manuel Goepfert
Assistance : Marc-Olivier Méhu




SOURCES & CREDITS :

   NOAA